createdAt,value
2023-02-25T00:03:29.432Z,3
2023-02-25T00:13:51.681Z,4
2023-02-25T00:23:45.343Z,5
2023-02-25T00:33:50.043Z,4
2023-02-25T00:43:55.937Z,6
2023-02-25T00:54:00.120Z,2
2023-02-25T01:04:07.894Z,2
2023-02-25T01:14:12.615Z,2
2023-02-25T01:24:19.314Z,2
2023-02-25T01:34:23.720Z,3
2023-02-25T01:44:30.519Z,3
2023-02-25T01:54:36.154Z,1
2023-02-25T02:04:43.749Z,3
2023-02-25T02:14:47.389Z,1
2023-02-25T02:24:54.896Z,4
2023-02-25T02:35:00.809Z,4
2023-02-25T02:45:06.613Z,3
2023-02-25T02:55:12.637Z,2
2023-02-25T03:05:19.394Z,3
2023-02-25T03:15:26.200Z,4
2023-02-25T03:25:33.228Z,4
2023-02-25T03:35:37.875Z,3
2023-02-25T03:45:43.590Z,4
2023-02-25T03:55:50.173Z,3
2023-02-25T04:05:54.996Z,3
2023-02-25T04:16:00.739Z,4
2023-02-25T04:26:04.246Z,12
2023-02-25T04:36:09.884Z,4
2023-02-25T04:46:16.122Z,3
2023-02-25T04:56:22.102Z,4
2023-02-25T05:06:27.886Z,9
2023-02-25T05:16:34.441Z,5
2023-02-25T05:26:39.852Z,4
2023-02-25T05:36:46.925Z,5
2023-02-25T05:46:50.841Z,5
2023-02-25T05:56:57.908Z,4
2023-02-25T06:07:02.418Z,5
2023-02-25T06:17:10.046Z,5
2023-02-25T06:27:15.062Z,3
2023-02-25T06:37:21.220Z,4
2023-02-25T06:47:25.296Z,3
2023-02-25T06:57:31.538Z,5
2023-02-25T07:07:34.663Z,7
2023-02-25T07:17:41.124Z,8
2023-02-25T07:27:45.039Z,7
2023-02-25T07:37:49.628Z,7
2023-02-25T07:47:55.750Z,7
2023-02-25T07:58:00.252Z,7
2023-02-25T08:08:06.678Z,7
2023-02-25T08:18:11.445Z,8
2023-02-25T08:28:15.925Z,4
2023-02-25T08:38:21.883Z,6
2023-02-25T08:48:28.973Z,9
2023-02-25T08:58:35.084Z,10
2023-02-25T09:08:43.396Z,10
2023-02-25T09:18:50.620Z,8
2023-02-25T09:28:56.179Z,10
2023-02-25T09:39:00.702Z,10
2023-02-25T09:49:07.404Z,11
2023-02-25T09:59:11.140Z,8
2023-02-25T10:09:16.947Z,8
2023-02-25T10:19:23.986Z,10
2023-02-25T10:29:29.231Z,9
2023-02-25T10:39:35.413Z,9
2023-02-25T10:49:46.519Z,9
2023-02-25T10:59:45.881Z,17
2023-02-25T11:09:53.262Z,22
2023-02-25T11:19:59.271Z,9
2023-02-25T11:30:04.237Z,9
2023-02-25T11:40:09.515Z,8
2023-02-25T11:50:18.563Z,8
2023-02-25T12:00:24.421Z,9
2023-02-25T12:10:30.867Z,8
2023-02-25T12:20:35.162Z,7
2023-02-25T12:30:41.612Z,8
2023-02-25T12:40:48.916Z,8
2023-02-25T12:50:53.732Z,10
2023-02-25T13:00:57.989Z,9
2023-02-25T13:11:05.197Z,8
2023-02-25T13:21:11.952Z,13
2023-02-25T13:31:15.744Z,9
2023-02-25T13:41:22.541Z,8
2023-02-25T13:51:27.724Z,11
2023-02-25T14:01:34.148Z,6
2023-02-25T14:11:40.198Z,7
2023-02-25T14:21:44.645Z,5
2023-02-25T14:31:50.600Z,7
2023-02-25T14:41:56.349Z,7
2023-02-25T14:52:03.107Z,8
2023-02-25T15:02:08.832Z,11
2023-02-25T15:12:13.291Z,8
2023-02-25T15:22:17.844Z,5
2023-02-25T15:32:23.451Z,6
2023-02-25T15:42:26.496Z,8
2023-02-25T15:52:35.167Z,6
2023-02-25T16:02:38.994Z,10
2023-02-25T16:12:43.650Z,9
2023-02-25T16:22:51.110Z,9
2023-02-25T16:32:56.940Z,9
2023-02-25T16:43:01.209Z,8
2023-02-25T16:53:07.297Z,7
2023-02-25T17:03:12.411Z,8
2023-02-25T17:13:18.218Z,8
2023-02-25T17:23:24.257Z,7
2023-02-25T17:33:32.436Z,8
2023-02-25T17:43:38.609Z,6
2023-02-25T17:53:44.422Z,5
2023-02-25T18:03:50.657Z,6
2023-02-25T18:13:55.822Z,7
2023-02-25T18:24:02.362Z,6
2023-02-25T18:34:08.076Z,10
2023-02-25T18:44:15.122Z,5
2023-02-25T18:54:18.982Z,6
2023-02-25T19:04:23.025Z,5
2023-02-25T19:14:27.985Z,6
2023-02-25T19:24:34.165Z,10
2023-02-25T19:34:38.611Z,5
2023-02-25T19:44:46.169Z,4
2023-02-25T19:54:51.350Z,7
2023-02-25T20:04:57.106Z,5
2023-02-25T20:15:03.839Z,4
2023-02-25T20:25:08.831Z,4
2023-02-25T20:35:14.226Z,5
2023-02-25T20:45:22.405Z,6
2023-02-25T20:55:28.740Z,6
2023-02-25T21:05:33.529Z,6
2023-02-25T21:15:36.939Z,5
2023-02-25T21:25:42.167Z,5
2023-02-25T21:35:47.781Z,7
2023-02-25T21:45:52.587Z,4
2023-02-25T21:55:57.303Z,4
2023-02-25T22:06:03.744Z,5
2023-02-25T22:16:08.856Z,6
2023-02-25T22:26:16.537Z,5
2023-02-25T22:36:21.355Z,5
2023-02-25T22:46:27.303Z,5
2023-02-25T22:56:33.012Z,4
2023-02-25T23:06:44.249Z,4
2023-02-25T23:16:44.087Z,6
2023-02-25T23:26:47.760Z,4
2023-02-25T23:36:51.783Z,6
2023-02-25T23:46:57.320Z,5
2023-02-25T23:57:02.950Z,7
